C07

Mack Mesa Airport

Mack, Colorado, USA
METAR KC07 230906Z AUTO 00000KT 10SM BKN065 BKN075 01/M03 A3025 RMK AO2
Observed Flight Rules
Apr-23 @ 09:06 UTC (35 minutes ago) Visual Flight Rules
Visibility Clouds
10 miles
  • Broken at 6,500' AGL
  • Broken at 7,500' AGL
Temperatures Readings
Current 1°C / 34°F
Dewpoint -3°C / 27°F
Humidity 75%
Altimeter 30.25" Hg
Pressure 1024 hPa
Elevation 3224
METAR KC07 230906Z AUTO 00000KT 10SM BKN065 BKN075 01/M03 A3025 RMK AO2
Observed Flight Rules
Apr-23 @ 09:06 UTC
(35 minutes ago)
VFR
Clouds
  • Broken at 6,500' AGL
  • Broken at 7,500' AGL
Temperature Dewpoint
1°C / 34°F -3°C / 27°F
Humidity Altimeter Pressure
75% 30.25" Hg 1024 hPa